sensor_id;sensor_type;location;lat;lon;timestamp;temperature;humidity
75091;DHT22;63674;48.048;8.306;2023-05-10T00:00:37;10.60;99.90
75091;DHT22;63674;48.048;8.306;2023-05-10T00:03:07;10.60;99.90
75091;DHT22;63674;48.048;8.306;2023-05-10T00:05:36;10.60;99.90
75091;DHT22;63674;48.048;8.306;2023-05-10T00:08:04;10.60;99.90
75091;DHT22;63674;48.048;8.306;2023-05-10T00:10:33;10.60;99.90
75091;DHT22;63674;48.048;8.306;2023-05-10T00:13:01;10.60;99.90
75091;DHT22;63674;48.048;8.306;2023-05-10T00:15:30;10.60;99.90
75091;DHT22;63674;48.048;8.306;2023-05-10T00:17:58;10.60;99.90
75091;DHT22;63674;48.048;8.306;2023-05-10T00:20:28;10.60;99.90
75091;DHT22;63674;48.048;8.306;2023-05-10T00:22:57;10.60;99.90
75091;DHT22;63674;48.048;8.306;2023-05-10T00:25:25;10.60;99.90
75091;DHT22;63674;48.048;8.306;2023-05-10T00:27:54;10.60;99.90
75091;DHT22;63674;48.048;8.306;2023-05-10T00:30:24;10.60;99.90
75091;DHT22;63674;48.048;8.306;2023-05-10T00:32:52;10.60;99.90
75091;DHT22;63674;48.048;8.306;2023-05-10T00:35:21;10.60;99.90
75091;DHT22;63674;48.048;8.306;2023-05-10T00:37:51;10.50;99.90
75091;DHT22;63674;48.048;8.306;2023-05-10T00:40:20;10.50;99.90
75091;DHT22;63674;48.048;8.306;2023-05-10T00:42:48;10.40;99.90
75091;DHT22;63674;48.048;8.306;2023-05-10T00:45:17;10.40;99.90
75091;DHT22;63674;48.048;8.306;2023-05-10T00:47:46;10.40;99.90
75091;DHT22;63674;48.048;8.306;2023-05-10T00:50:15;10.40;99.90
75091;DHT22;63674;48.048;8.306;2023-05-10T00:52:44;10.40;99.90
75091;DHT22;63674;48.048;8.306;2023-05-10T00:55:14;10.40;99.90
75091;DHT22;63674;48.048;8.306;2023-05-10T00:57:42;10.40;99.90
75091;DHT22;63674;48.048;8.306;2023-05-10T01:00:12;10.40;99.90
75091;DHT22;63674;48.048;8.306;2023-05-10T01:02:44;10.40;99.90
75091;DHT22;63674;48.048;8.306;2023-05-10T01:05:14;10.40;99.90
75091;DHT22;63674;48.048;8.306;2023-05-10T01:07:42;10.40;99.90
75091;DHT22;63674;48.048;8.306;2023-05-10T01:10:11;10.40;99.90
75091;DHT22;63674;48.048;8.306;2023-05-10T01:12:43;10.30;99.90
75091;DHT22;63674;48.048;8.306;2023-05-10T01:15:14;10.30;99.90
75091;DHT22;63674;48.048;8.306;2023-05-10T01:17:45;10.40;99.90
75091;DHT22;63674;48.048;8.306;2023-05-10T01:20:15;10.40;99.90
75091;DHT22;63674;48.048;8.306;2023-05-10T01:23:18;10.40;99.90
75091;DHT22;63674;48.048;8.306;2023-05-10T01:26:27;10.40;99.90
75091;DHT22;63674;48.048;8.306;2023-05-10T01:29:40;10.30;99.90
75091;DHT22;63674;48.048;8.306;2023-05-10T01:32:51;10.40;99.90
75091;DHT22;63674;48.048;8.306;2023-05-10T01:35:28;10.40;99.90
75091;DHT22;63674;48.048;8.306;2023-05-10T01:38:06;10.40;99.90
75091;DHT22;63674;48.048;8.306;2023-05-10T01:40:42;10.30;99.90
75091;DHT22;63674;48.048;8.306;2023-05-10T01:43:20;10.10;99.90
75091;DHT22;63674;48.048;8.306;2023-05-10T01:45:58;10.10;99.90
75091;DHT22;63674;48.048;8.306;2023-05-10T01:48:33;10.10;99.90
75091;DHT22;63674;48.048;8.306;2023-05-10T01:51:02;10.00;99.90
75091;DHT22;63674;48.048;8.306;2023-05-10T01:53:32;10.00;99.90
75091;DHT22;63674;48.048;8.306;2023-05-10T01:56:03;10.10;99.90
75091;DHT22;63674;48.048;8.306;2023-05-10T01:58:33;10.10;99.90
75091;DHT22;63674;48.048;8.306;2023-05-10T02:01:05;10.10;99.90
75091;DHT22;63674;48.048;8.306;2023-05-10T02:03:38;10.20;99.90
75091;DHT22;63674;48.048;8.306;2023-05-10T02:06:07;10.30;99.90
75091;DHT22;63674;48.048;8.306;2023-05-10T02:08:38;10.30;99.90
75091;DHT22;63674;48.048;8.306;2023-05-10T02:11:09;10.30;99.90
75091;DHT22;63674;48.048;8.306;2023-05-10T02:13:39;10.20;99.90
75091;DHT22;63674;48.048;8.306;2023-05-10T02:16:11;10.20;99.90
75091;DHT22;63674;48.048;8.306;2023-05-10T02:18:42;10.20;99.90
75091;DHT22;63674;48.048;8.306;2023-05-10T02:21:11;10.10;99.90
75091;DHT22;63674;48.048;8.306;2023-05-10T02:23:42;10.20;99.90
75091;DHT22;63674;48.048;8.306;2023-05-10T02:26:11;10.20;99.90
75091;DHT22;63674;48.048;8.306;2023-05-10T02:28:42;10.20;99.90
75091;DHT22;63674;48.048;8.306;2023-05-10T02:31:12;10.20;99.90
75091;DHT22;63674;48.048;8.306;2023-05-10T02:33:43;10.20;99.90
75091;DHT22;63674;48.048;8.306;2023-05-10T02:36:13;10.20;99.90
75091;DHT22;63674;48.048;8.306;2023-05-10T02:38:41;10.20;99.90
75091;DHT22;63674;48.048;8.306;2023-05-10T02:41:11;10.30;99.90
75091;DHT22;63674;48.048;8.306;2023-05-10T02:43:40;10.30;99.90
75091;DHT22;63674;48.048;8.306;2023-05-10T02:46:10;10.30;99.90
75091;DHT22;63674;48.048;8.306;2023-05-10T02:48:39;10.30;99.90
75091;DHT22;63674;48.048;8.306;2023-05-10T02:51:12;10.30;99.90
75091;DHT22;63674;48.048;8.306;2023-05-10T02:53:46;10.30;99.90
75091;DHT22;63674;48.048;8.306;2023-05-10T02:56:19;10.30;99.90
75091;DHT22;63674;48.048;8.306;2023-05-10T02:58:52;10.30;99.90
75091;DHT22;63674;48.048;8.306;2023-05-10T03:01:21;10.20;99.90
75091;DHT22;63674;48.048;8.306;2023-05-10T03:03:49;10.10;99.90
75091;DHT22;63674;48.048;8.306;2023-05-10T03:06:19;10.10;99.90
75091;DHT22;63674;48.048;8.306;2023-05-10T03:08:48;10.10;99.90
75091;DHT22;63674;48.048;8.306;2023-05-10T03:11:35;10.10;99.90
75091;DHT22;63674;48.048;8.306;2023-05-10T03:14:12;10.10;99.90
75091;DHT22;63674;48.048;8.306;2023-05-10T03:16:56;10.00;99.90
75091;DHT22;63674;48.048;8.306;2023-05-10T03:19:32;10.10;99.90
75091;DHT22;63674;48.048;8.306;2023-05-10T03:22:10;10.10;99.90
75091;DHT22;63674;48.048;8.306;2023-05-10T03:24:39;10.10;99.90
75091;DHT22;63674;48.048;8.306;2023-05-10T03:27:10;10.10;99.90
75091;DHT22;63674;48.048;8.306;2023-05-10T03:29:39;10.10;99.90
75091;DHT22;63674;48.048;8.306;2023-05-10T03:32:08;10.00;99.90
75091;DHT22;63674;48.048;8.306;2023-05-10T03:34:41;10.00;99.90
75091;DHT22;63674;48.048;8.306;2023-05-10T03:37:11;10.00;99.90
75091;DHT22;63674;48.048;8.306;2023-05-10T03:39:40;9.90;99.90
75091;DHT22;63674;48.048;8.306;2023-05-10T03:42:09;9.90;99.90
75091;DHT22;63674;48.048;8.306;2023-05-10T03:44:39;9.90;99.90
75091;DHT22;63674;48.048;8.306;2023-05-10T03:47:07;9.90;99.90
75091;DHT22;63674;48.048;8.306;2023-05-10T03:49:36;9.80;99.90
75091;DHT22;63674;48.048;8.306;2023-05-10T03:52:05;9.80;99.90
75091;DHT22;63674;48.048;8.306;2023-05-10T03:54:34;9.90;99.90
75091;DHT22;63674;48.048;8.306;2023-05-10T03:57:03;9.90;99.90
75091;DHT22;63674;48.048;8.306;2023-05-10T03:59:32;9.80;99.90
75091;DHT22;63674;48.048;8.306;2023-05-10T04:02:00;9.80;99.90
75091;DHT22;63674;48.048;8.306;2023-05-10T04:04:29;9.80;99.90
75091;DHT22;63674;48.048;8.306;2023-05-10T04:06:57;9.90;99.90
75091;DHT22;63674;48.048;8.306;2023-05-10T04:09:26;9.90;99.90
75091;DHT22;63674;48.048;8.306;2023-05-10T04:11:55;9.90;99.90
75091;DHT22;63674;48.048;8.306;2023-05-10T04:14:24;10.00;99.90
75091;DHT22;63674;48.048;8.306;2023-05-10T04:16:52;10.00;99.90
75091;DHT22;63674;48.048;8.306;2023-05-10T04:19:22;10.10;99.90
75091;DHT22;63674;48.048;8.306;2023-05-10T04:21:51;10.00;99.90
75091;DHT22;63674;48.048;8.306;2023-05-10T04:24:19;10.10;99.90
75091;DHT22;63674;48.048;8.306;2023-05-10T04:26:48;10.10;99.90
75091;DHT22;63674;48.048;8.306;2023-05-10T04:29:18;10.10;99.90
75091;DHT22;63674;48.048;8.306;2023-05-10T04:31:46;10.00;99.90
75091;DHT22;63674;48.048;8.306;2023-05-10T04:34:15;10.00;99.90
75091;DHT22;63674;48.048;8.306;2023-05-10T04:36:44;10.00;99.90
75091;DHT22;63674;48.048;8.306;2023-05-10T04:39:12;10.00;99.90
75091;DHT22;63674;48.048;8.306;2023-05-10T04:41:41;10.00;99.90
75091;DHT22;63674;48.048;8.306;2023-05-10T04:44:10;10.00;99.90
75091;DHT22;63674;48.048;8.306;2023-05-10T04:46:40;10.00;99.90
75091;DHT22;63674;48.048;8.306;2023-05-10T04:49:09;9.90;99.90
75091;DHT22;63674;48.048;8.306;2023-05-10T04:51:37;10.00;99.90
75091;DHT22;63674;48.048;8.306;2023-05-10T04:54:06;10.00;99.90
75091;DHT22;63674;48.048;8.306;2023-05-10T04:56:35;10.10;99.90
75091;DHT22;63674;48.048;8.306;2023-05-10T04:59:03;10.00;99.90
75091;DHT22;63674;48.048;8.306;2023-05-10T05:01:32;10.00;99.90
75091;DHT22;63674;48.048;8.306;2023-05-10T05:04:02;9.90;99.90
75091;DHT22;63674;48.048;8.306;2023-05-10T05:06:31;9.90;99.90
75091;DHT22;63674;48.048;8.306;2023-05-10T05:08:59;9.80;99.90
75091;DHT22;63674;48.048;8.306;2023-05-10T05:11:28;9.80;99.90
75091;DHT22;63674;48.048;8.306;2023-05-10T05:13:57;9.80;99.90
75091;DHT22;63674;48.048;8.306;2023-05-10T05:16:27;9.80;99.90
75091;DHT22;63674;48.048;8.306;2023-05-10T05:18:59;9.80;99.90
75091;DHT22;63674;48.048;8.306;2023-05-10T05:21:29;9.90;99.90
75091;DHT22;63674;48.048;8.306;2023-05-10T05:23:59;10.00;99.90
75091;DHT22;63674;48.048;8.306;2023-05-10T05:26:27;9.90;99.90
75091;DHT22;63674;48.048;8.306;2023-05-10T05:28:56;9.90;99.90
75091;DHT22;63674;48.048;8.306;2023-05-10T05:31:24;10.00;99.90
75091;DHT22;63674;48.048;8.306;2023-05-10T05:33:53;10.00;99.90
75091;DHT22;63674;48.048;8.306;2023-05-10T05:36:22;10.00;99.90
75091;DHT22;63674;48.048;8.306;2023-05-10T05:38:52;10.00;99.90
75091;DHT22;63674;48.048;8.306;2023-05-10T05:41:20;10.00;99.90
75091;DHT22;63674;48.048;8.306;2023-05-10T05:43:49;10.00;99.90
75091;DHT22;63674;48.048;8.306;2023-05-10T05:46:17;10.00;99.90
75091;DHT22;63674;48.048;8.306;2023-05-10T05:48:46;10.00;99.90
75091;DHT22;63674;48.048;8.306;2023-05-10T05:51:15;10.00;99.90
75091;DHT22;63674;48.048;8.306;2023-05-10T05:53:44;9.90;99.90
75091;DHT22;63674;48.048;8.306;2023-05-10T05:56:13;9.90;99.90
75091;DHT22;63674;48.048;8.306;2023-05-10T05:58:42;10.00;99.90
75091;DHT22;63674;48.048;8.306;2023-05-10T06:01:11;10.00;99.90
75091;DHT22;63674;48.048;8.306;2023-05-10T06:03:41;10.00;99.90
75091;DHT22;63674;48.048;8.306;2023-05-10T06:06:09;10.00;99.90
75091;DHT22;63674;48.048;8.306;2023-05-10T06:08:39;10.00;99.90
75091;DHT22;63674;48.048;8.306;2023-05-10T06:11:07;10.00;99.90
75091;DHT22;63674;48.048;8.306;2023-05-10T06:13:37;10.00;99.90
75091;DHT22;63674;48.048;8.306;2023-05-10T06:16:06;10.00;99.90
75091;DHT22;63674;48.048;8.306;2023-05-10T06:18:35;10.10;99.90
75091;DHT22;63674;48.048;8.306;2023-05-10T06:21:04;10.10;99.90
75091;DHT22;63674;48.048;8.306;2023-05-10T06:23:32;10.10;99.90
75091;DHT22;63674;48.048;8.306;2023-05-10T06:26:01;10.20;99.90
75091;DHT22;63674;48.048;8.306;2023-05-10T06:28:30;10.30;99.90
75091;DHT22;63674;48.048;8.306;2023-05-10T06:31:01;10.40;99.90
75091;DHT22;63674;48.048;8.306;2023-05-10T06:33:31;10.50;99.90
75091;DHT22;63674;48.048;8.306;2023-05-10T06:36:00;10.60;99.90
75091;DHT22;63674;48.048;8.306;2023-05-10T06:38:28;10.60;99.90
75091;DHT22;63674;48.048;8.306;2023-05-10T06:40:57;10.60;99.90
75091;DHT22;63674;48.048;8.306;2023-05-10T06:43:25;10.60;99.90
75091;DHT22;63674;48.048;8.306;2023-05-10T06:45:55;10.60;99.90
75091;DHT22;63674;48.048;8.306;2023-05-10T06:48:25;10.70;99.90
75091;DHT22;63674;48.048;8.306;2023-05-10T06:50:54;10.70;99.90
75091;DHT22;63674;48.048;8.306;2023-05-10T06:53:22;10.60;99.90
75091;DHT22;63674;48.048;8.306;2023-05-10T06:55:51;10.60;99.90
75091;DHT22;63674;48.048;8.306;2023-05-10T06:58:19;10.60;99.90
75091;DHT22;63674;48.048;8.306;2023-05-10T07:00:48;10.60;99.90
75091;DHT22;63674;48.048;8.306;2023-05-10T07:03:17;10.40;99.90
75091;DHT22;63674;48.048;8.306;2023-05-10T07:05:47;10.40;99.90
75091;DHT22;63674;48.048;8.306;2023-05-10T07:08:16;10.30;99.90
75091;DHT22;63674;48.048;8.306;2023-05-10T07:10:45;10.10;99.90
75091;DHT22;63674;48.048;8.306;2023-05-10T07:13:14;10.00;99.90
75091;DHT22;63674;48.048;8.306;2023-05-10T07:15:42;9.90;99.90
75091;DHT22;63674;48.048;8.306;2023-05-10T07:18:11;9.90;99.90
75091;DHT22;63674;48.048;8.306;2023-05-10T07:20:39;9.90;99.90
75091;DHT22;63674;48.048;8.306;2023-05-10T07:23:09;9.90;99.90
75091;DHT22;63674;48.048;8.306;2023-05-10T07:25:38;9.80;99.90
75091;DHT22;63674;48.048;8.306;2023-05-10T07:28:06;9.90;99.90
75091;DHT22;63674;48.048;8.306;2023-05-10T07:30:35;9.80;99.90
75091;DHT22;63674;48.048;8.306;2023-05-10T07:33:04;9.90;99.90
75091;DHT22;63674;48.048;8.306;2023-05-10T07:35:32;9.80;99.90
75091;DHT22;63674;48.048;8.306;2023-05-10T07:38:01;9.90;99.90
75091;DHT22;63674;48.048;8.306;2023-05-10T07:40:31;10.00;99.90
75091;DHT22;63674;48.048;8.306;2023-05-10T07:43:00;10.00;99.90
75091;DHT22;63674;48.048;8.306;2023-05-10T07:45:29;10.10;99.90
75091;DHT22;63674;48.048;8.306;2023-05-10T07:47:57;10.10;99.90
75091;DHT22;63674;48.048;8.306;2023-05-10T07:50:26;10.20;99.90
75091;DHT22;63674;48.048;8.306;2023-05-10T07:52:55;10.30;99.90
75091;DHT22;63674;48.048;8.306;2023-05-10T07:55:23;10.40;99.90
75091;DHT22;63674;48.048;8.306;2023-05-10T07:57:53;10.50;99.90
75091;DHT22;63674;48.048;8.306;2023-05-10T08:00:21;10.70;99.90
75091;DHT22;63674;48.048;8.306;2023-05-10T08:02:50;10.70;99.90
75091;DHT22;63674;48.048;8.306;2023-05-10T08:05:18;10.80;99.90
75091;DHT22;63674;48.048;8.306;2023-05-10T08:07:47;10.70;99.90
75091;DHT22;63674;48.048;8.306;2023-05-10T08:10:15;10.80;99.90
75091;DHT22;63674;48.048;8.306;2023-05-10T08:12:44;10.80;99.90
75091;DHT22;63674;48.048;8.306;2023-05-10T08:15:14;10.90;99.90
75091;DHT22;63674;48.048;8.306;2023-05-10T08:17:43;10.90;99.90
75091;DHT22;63674;48.048;8.306;2023-05-10T08:20:30;11.20;99.90
75091;DHT22;63674;48.048;8.306;2023-05-10T08:23:18;11.30;99.90
75091;DHT22;63674;48.048;8.306;2023-05-10T08:26:05;11.50;99.90
75091;DHT22;63674;48.048;8.306;2023-05-10T08:29:13;11.60;99.90
75091;DHT22;63674;48.048;8.306;2023-05-10T08:31:44;11.60;99.90
75091;DHT22;63674;48.048;8.306;2023-05-10T08:34:13;11.70;99.90
75091;DHT22;63674;48.048;8.306;2023-05-10T08:36:41;11.90;99.90
75091;DHT22;63674;48.048;8.306;2023-05-10T08:39:11;11.80;99.90
75091;DHT22;63674;48.048;8.306;2023-05-10T08:41:58;12.00;99.90
75091;DHT22;63674;48.048;8.306;2023-05-10T08:44:32;12.10;99.90
75091;DHT22;63674;48.048;8.306;2023-05-10T08:47:04;12.20;99.90
75091;DHT22;63674;48.048;8.306;2023-05-10T08:49:34;12.20;99.90
75091;DHT22;63674;48.048;8.306;2023-05-10T08:52:04;12.10;99.90
75091;DHT22;63674;48.048;8.306;2023-05-10T08:54:34;12.00;99.90
75091;DHT22;63674;48.048;8.306;2023-05-10T08:57:03;11.80;99.90
75091;DHT22;63674;48.048;8.306;2023-05-10T08:59:31;11.60;99.90
75091;DHT22;63674;48.048;8.306;2023-05-10T09:02:02;11.50;99.90
75091;DHT22;63674;48.048;8.306;2023-05-10T09:04:32;11.40;99.90
75091;DHT22;63674;48.048;8.306;2023-05-10T09:07:01;11.30;99.90
75091;DHT22;63674;48.048;8.306;2023-05-10T09:09:30;11.20;99.90
75091;DHT22;63674;48.048;8.306;2023-05-10T09:11:59;11.10;99.90
75091;DHT22;63674;48.048;8.306;2023-05-10T09:14:28;11.10;99.90
75091;DHT22;63674;48.048;8.306;2023-05-10T09:16:57;11.10;99.90
75091;DHT22;63674;48.048;8.306;2023-05-10T09:19:27;11.20;99.90
75091;DHT22;63674;48.048;8.306;2023-05-10T09:21:56;11.50;99.90
75091;DHT22;63674;48.048;8.306;2023-05-10T09:24:29;11.80;99.90
75091;DHT22;63674;48.048;8.306;2023-05-10T09:26:58;12.10;99.90
75091;DHT22;63674;48.048;8.306;2023-05-10T09:29:38;12.30;99.90
75091;DHT22;63674;48.048;8.306;2023-05-10T09:32:07;12.60;99.90
75091;DHT22;63674;48.048;8.306;2023-05-10T09:34:37;12.80;99.90
75091;DHT22;63674;48.048;8.306;2023-05-10T09:37:08;13.10;99.90
75091;DHT22;63674;48.048;8.306;2023-05-10T09:39:37;13.20;99.90
75091;DHT22;63674;48.048;8.306;2023-05-10T09:42:06;13.30;99.90
75091;DHT22;63674;48.048;8.306;2023-05-10T09:44:36;13.40;99.90
75091;DHT22;63674;48.048;8.306;2023-05-10T09:47:05;13.30;99.90
75091;DHT22;63674;48.048;8.306;2023-05-10T09:49:33;13.50;99.90
75091;DHT22;63674;48.048;8.306;2023-05-10T09:52:05;13.60;99.90
75091;DHT22;63674;48.048;8.306;2023-05-10T09:54:34;13.50;99.90
75091;DHT22;63674;48.048;8.306;2023-05-10T09:57:03;13.40;99.90
75091;DHT22;63674;48.048;8.306;2023-05-10T09:59:33;13.50;99.90
75091;DHT22;63674;48.048;8.306;2023-05-10T10:02:03;13.30;99.90
75091;DHT22;63674;48.048;8.306;2023-05-10T10:04:32;13.00;99.90
75091;DHT22;63674;48.048;8.306;2023-05-10T10:07:01;12.70;99.90
75091;DHT22;63674;48.048;8.306;2023-05-10T10:09:33;12.70;99.90
75091;DHT22;63674;48.048;8.306;2023-05-10T10:12:03;12.40;99.90
75091;DHT22;63674;48.048;8.306;2023-05-10T10:14:32;12.20;99.90
75091;DHT22;63674;48.048;8.306;2023-05-10T10:17:02;11.90;99.90
75091;DHT22;63674;48.048;8.306;2023-05-10T10:19:35;11.60;99.90
75091;DHT22;63674;48.048;8.306;2023-05-10T10:22:04;11.30;99.90
75091;DHT22;63674;48.048;8.306;2023-05-10T10:24:34;11.10;99.90
75091;DHT22;63674;48.048;8.306;2023-05-10T10:27:13;10.90;99.90
75091;DHT22;63674;48.048;8.306;2023-05-10T10:29:56;10.90;99.90
75091;DHT22;63674;48.048;8.306;2023-05-10T10:32:35;10.90;99.90
75091;DHT22;63674;48.048;8.306;2023-05-10T10:35:10;11.00;99.90
75091;DHT22;63674;48.048;8.306;2023-05-10T10:37:44;11.20;99.90
75091;DHT22;63674;48.048;8.306;2023-05-10T10:40:29;11.30;99.90
75091;DHT22;63674;48.048;8.306;2023-05-10T10:43:23;11.40;99.90
75091;DHT22;63674;48.048;8.306;2023-05-10T10:46:12;11.40;99.90
75091;DHT22;63674;48.048;8.306;2023-05-10T10:48:47;11.70;99.90
75091;DHT22;63674;48.048;8.306;2023-05-10T10:51:16;12.00;99.90
75091;DHT22;63674;48.048;8.306;2023-05-10T10:53:47;12.20;99.90
75091;DHT22;63674;48.048;8.306;2023-05-10T10:56:22;12.40;99.90
75091;DHT22;63674;48.048;8.306;2023-05-10T10:58:52;12.40;99.90
75091;DHT22;63674;48.048;8.306;2023-05-10T11:01:22;12.50;99.90
75091;DHT22;63674;48.048;8.306;2023-05-10T11:04:16;12.50;99.90
75091;DHT22;63674;48.048;8.306;2023-05-10T11:06:46;12.50;99.90
75091;DHT22;63674;48.048;8.306;2023-05-10T11:09:14;12.40;99.90
75091;DHT22;63674;48.048;8.306;2023-05-10T11:11:50;12.30;99.90
75091;DHT22;63674;48.048;8.306;2023-05-10T11:14:23;12.20;99.90
75091;DHT22;63674;48.048;8.306;2023-05-10T11:16:52;12.30;99.90
75091;DHT22;63674;48.048;8.306;2023-05-10T11:19:21;12.50;99.90
75091;DHT22;63674;48.048;8.306;2023-05-10T11:21:51;12.70;99.90
75091;DHT22;63674;48.048;8.306;2023-05-10T11:24:56;12.80;99.90
75091;DHT22;63674;48.048;8.306;2023-05-10T11:27:26;12.90;99.90
75091;DHT22;63674;48.048;8.306;2023-05-10T11:29:56;13.00;99.90
75091;DHT22;63674;48.048;8.306;2023-05-10T11:32:24;12.80;99.90
75091;DHT22;63674;48.048;8.306;2023-05-10T11:34:53;12.80;99.90
75091;DHT22;63674;48.048;8.306;2023-05-10T11:37:21;12.90;99.90
75091;DHT22;63674;48.048;8.306;2023-05-10T11:39:50;12.80;99.90
75091;DHT22;63674;48.048;8.306;2023-05-10T11:42:18;12.70;99.90
75091;DHT22;63674;48.048;8.306;2023-05-10T11:44:47;12.60;99.90
75091;DHT22;63674;48.048;8.306;2023-05-10T11:47:17;12.50;99.90
75091;DHT22;63674;48.048;8.306;2023-05-10T11:49:48;12.50;99.90
75091;DHT22;63674;48.048;8.306;2023-05-10T11:52:18;12.60;99.90
75091;DHT22;63674;48.048;8.306;2023-05-10T11:54:51;12.70;99.90
75091;DHT22;63674;48.048;8.306;2023-05-10T11:57:25;12.90;99.90
75091;DHT22;63674;48.048;8.306;2023-05-10T11:59:54;13.20;99.90
75091;DHT22;63674;48.048;8.306;2023-05-10T12:02:26;13.30;99.90
75091;DHT22;63674;48.048;8.306;2023-05-10T12:04:55;13.50;99.90
75091;DHT22;63674;48.048;8.306;2023-05-10T12:07:26;13.60;99.90
75091;DHT22;63674;48.048;8.306;2023-05-10T12:10:05;13.70;99.90
75091;DHT22;63674;48.048;8.306;2023-05-10T12:12:39;13.60;99.90
75091;DHT22;63674;48.048;8.306;2023-05-10T12:15:16;13.40;99.90
75091;DHT22;63674;48.048;8.306;2023-05-10T12:17:48;13.40;99.90
75091;DHT22;63674;48.048;8.306;2023-05-10T12:20:19;13.30;99.90
75091;DHT22;63674;48.048;8.306;2023-05-10T12:22:50;13.20;99.90
75091;DHT22;63674;48.048;8.306;2023-05-10T12:25:21;13.20;99.90
75091;DHT22;63674;48.048;8.306;2023-05-10T12:27:54;13.20;99.90
75091;DHT22;63674;48.048;8.306;2023-05-10T12:30:24;13.20;99.90
75091;DHT22;63674;48.048;8.306;2023-05-10T12:33:00;13.10;99.90
75091;DHT22;63674;48.048;8.306;2023-05-10T12:35:30;13.20;99.90
75091;DHT22;63674;48.048;8.306;2023-05-10T12:37:59;13.10;99.90
75091;DHT22;63674;48.048;8.306;2023-05-10T12:40:28;13.20;99.90
75091;DHT22;63674;48.048;8.306;2023-05-10T12:42:57;13.10;99.90
75091;DHT22;63674;48.048;8.306;2023-05-10T12:45:25;12.60;99.90
75091;DHT22;63674;48.048;8.306;2023-05-10T12:47:55;12.50;99.90
75091;DHT22;63674;48.048;8.306;2023-05-10T12:50:23;12.50;99.90
75091;DHT22;63674;48.048;8.306;2023-05-10T12:52:52;12.40;99.90
75091;DHT22;63674;48.048;8.306;2023-05-10T12:55:21;12.40;99.90
75091;DHT22;63674;48.048;8.306;2023-05-10T12:57:49;12.40;99.90
75091;DHT22;63674;48.048;8.306;2023-05-10T13:00:18;12.40;99.90
75091;DHT22;63674;48.048;8.306;2023-05-10T13:02:47;12.40;99.90
75091;DHT22;63674;48.048;8.306;2023-05-10T13:05:17;12.50;99.90
75091;DHT22;63674;48.048;8.306;2023-05-10T13:07:46;12.70;99.90
75091;DHT22;63674;48.048;8.306;2023-05-10T13:10:14;13.00;99.90
75091;DHT22;63674;48.048;8.306;2023-05-10T13:12:44;13.40;99.90
75091;DHT22;63674;48.048;8.306;2023-05-10T13:15:12;13.50;99.90
75091;DHT22;63674;48.048;8.306;2023-05-10T13:17:41;13.60;99.90
75091;DHT22;63674;48.048;8.306;2023-05-10T13:20:11;13.50;99.90
75091;DHT22;63674;48.048;8.306;2023-05-10T13:22:41;13.70;99.90
75091;DHT22;63674;48.048;8.306;2023-05-10T13:25:11;13.50;99.90
75091;DHT22;63674;48.048;8.306;2023-05-10T13:27:40;13.50;99.90
75091;DHT22;63674;48.048;8.306;2023-05-10T13:30:09;13.20;99.90
75091;DHT22;63674;48.048;8.306;2023-05-10T13:32:38;12.90;99.90
75091;DHT22;63674;48.048;8.306;2023-05-10T13:35:08;12.70;99.90
75091;DHT22;63674;48.048;8.306;2023-05-10T13:37:37;12.50;99.90
75091;DHT22;63674;48.048;8.306;2023-05-10T13:40:08;12.00;99.90
75091;DHT22;63674;48.048;8.306;2023-05-10T13:42:37;11.90;99.90
75091;DHT22;63674;48.048;8.306;2023-05-10T13:45:06;11.70;99.90
75091;DHT22;63674;48.048;8.306;2023-05-10T13:47:35;11.70;99.90
75091;DHT22;63674;48.048;8.306;2023-05-10T13:50:05;11.50;99.90
75091;DHT22;63674;48.048;8.306;2023-05-10T13:52:34;11.70;99.90
75091;DHT22;63674;48.048;8.306;2023-05-10T13:55:03;12.10;99.90
75091;DHT22;63674;48.048;8.306;2023-05-10T13:57:34;12.30;99.90
75091;DHT22;63674;48.048;8.306;2023-05-10T14:00:04;12.40;99.90
75091;DHT22;63674;48.048;8.306;2023-05-10T14:02:34;12.30;99.90
75091;DHT22;63674;48.048;8.306;2023-05-10T14:05:04;12.30;99.90
75091;DHT22;63674;48.048;8.306;2023-05-10T14:07:33;12.30;99.90
75091;DHT22;63674;48.048;8.306;2023-05-10T14:10:02;12.40;99.90
75091;DHT22;63674;48.048;8.306;2023-05-10T14:12:31;12.60;99.90
75091;DHT22;63674;48.048;8.306;2023-05-10T14:15:01;12.60;99.90
75091;DHT22;63674;48.048;8.306;2023-05-10T14:17:32;12.60;99.90
75091;DHT22;63674;48.048;8.306;2023-05-10T14:20:01;12.70;99.90
75091;DHT22;63674;48.048;8.306;2023-05-10T14:22:30;12.70;99.90
75091;DHT22;63674;48.048;8.306;2023-05-10T14:25:00;12.90;99.90
75091;DHT22;63674;48.048;8.306;2023-05-10T14:27:29;12.80;99.90
75091;DHT22;63674;48.048;8.306;2023-05-10T14:29:57;13.00;99.90
75091;DHT22;63674;48.048;8.306;2023-05-10T14:32:27;13.00;99.90
75091;DHT22;63674;48.048;8.306;2023-05-10T14:34:56;12.90;99.90
75091;DHT22;63674;48.048;8.306;2023-05-10T14:37:24;12.90;99.90
75091;DHT22;63674;48.048;8.306;2023-05-10T14:39:53;12.90;99.90
75091;DHT22;63674;48.048;8.306;2023-05-10T14:42:22;12.90;99.90
75091;DHT22;63674;48.048;8.306;2023-05-10T14:44:50;13.00;99.90
75091;DHT22;63674;48.048;8.306;2023-05-10T14:47:19;13.10;99.90
75091;DHT22;63674;48.048;8.306;2023-05-10T14:49:49;13.10;99.90
75091;DHT22;63674;48.048;8.306;2023-05-10T14:52:17;13.30;99.90
75091;DHT22;63674;48.048;8.306;2023-05-10T14:54:46;13.10;99.90
75091;DHT22;63674;48.048;8.306;2023-05-10T14:57:14;13.00;99.90
75091;DHT22;63674;48.048;8.306;2023-05-10T14:59:43;12.90;99.90
75091;DHT22;63674;48.048;8.306;2023-05-10T15:02:12;12.70;99.90
75091;DHT22;63674;48.048;8.306;2023-05-10T15:04:41;12.60;99.90
75091;DHT22;63674;48.048;8.306;2023-05-10T15:07:11;12.60;99.90
75091;DHT22;63674;48.048;8.306;2023-05-10T15:09:41;12.60;99.90
75091;DHT22;63674;48.048;8.306;2023-05-10T15:12:10;12.60;99.90
75091;DHT22;63674;48.048;8.306;2023-05-10T15:14:38;12.40;99.90
75091;DHT22;63674;48.048;8.306;2023-05-10T15:17:07;12.50;99.90
75091;DHT22;63674;48.048;8.306;2023-05-10T15:19:35;12.60;99.90
75091;DHT22;63674;48.048;8.306;2023-05-10T15:22:04;12.70;99.90
75091;DHT22;63674;48.048;8.306;2023-05-10T15:24:34;12.80;99.90
75091;DHT22;63674;48.048;8.306;2023-05-10T15:27:03;12.80;99.90
75091;DHT22;63674;48.048;8.306;2023-05-10T15:29:32;12.80;99.90
75091;DHT22;63674;48.048;8.306;2023-05-10T15:32:01;13.00;99.90
75091;DHT22;63674;48.048;8.306;2023-05-10T15:34:30;13.10;99.90
75091;DHT22;63674;48.048;8.306;2023-05-10T15:37:01;13.30;99.90
75091;DHT22;63674;48.048;8.306;2023-05-10T15:39:30;13.20;99.90
75091;DHT22;63674;48.048;8.306;2023-05-10T15:41:59;13.10;99.90
75091;DHT22;63674;48.048;8.306;2023-05-10T15:44:28;12.90;99.90
75091;DHT22;63674;48.048;8.306;2023-05-10T15:46:57;12.80;99.90
75091;DHT22;63674;48.048;8.306;2023-05-10T15:49:25;12.50;99.90
75091;DHT22;63674;48.048;8.306;2023-05-10T15:51:54;12.50;99.90
75091;DHT22;63674;48.048;8.306;2023-05-10T15:54:23;12.50;99.90